createdAt,value
2022-10-30T00:01:05.748Z,15.89
2022-10-30T00:03:33.075Z,15.81
2022-10-30T00:06:04.704Z,15.85
2022-10-30T00:08:32.403Z,15.73
2022-10-30T00:11:07.230Z,15.81
2022-10-30T00:13:35.798Z,15.67
2022-10-30T00:16:05.975Z,15.77
2022-10-30T00:18:34.907Z,15.82
2022-10-30T00:21:11.767Z,15.83
2022-10-30T00:23:39.739Z,15.86
2022-10-30T00:26:08.053Z,15.74
2022-10-30T00:28:36.667Z,15.90
2022-10-30T00:31:05.918Z,15.91
2022-10-30T00:33:33.350Z,15.80
2022-10-30T00:36:01.172Z,15.83
2022-10-30T00:38:28.405Z,15.80
2022-10-30T00:40:56.052Z,15.90
2022-10-30T00:43:34.050Z,15.94
2022-10-30T00:46:07.898Z,15.97
2022-10-30T00:48:36.020Z,15.92
2022-10-30T00:51:08.409Z,15.91
2022-10-30T00:53:36.019Z,15.86
2022-10-30T00:56:08.002Z,15.86
2022-10-30T00:58:43.223Z,15.93
2022-10-30T01:01:18.045Z,15.82
2022-10-30T01:03:47.678Z,15.91
2022-10-30T01:06:17.670Z,15.84
2022-10-30T01:08:45.840Z,15.90
2022-10-30T01:11:13.274Z,15.86
2022-10-30T01:13:45.175Z,15.84
2022-10-30T01:16:25.224Z,15.94
2022-10-30T01:19:09.274Z,15.89
2022-10-30T01:21:45.208Z,15.98
2022-10-30T01:24:31.510Z,15.98
2022-10-30T01:27:40.150Z,16.04
2022-10-30T01:30:22.000Z,16.02
2022-10-30T01:32:58.593Z,15.98
2022-10-30T01:35:41.233Z,15.94
2022-10-30T01:38:29.136Z,16.00
2022-10-30T01:40:57.221Z,15.81
2022-10-30T01:43:24.732Z,15.94
2022-10-30T01:46:24.031Z,16.05
2022-10-30T01:49:07.711Z,16.04
2022-10-30T01:52:08.854Z,16.04
2022-10-30T01:54:46.849Z,15.98
2022-10-30T01:57:36.477Z,16.03
2022-10-30T02:00:12.127Z,16.05
2022-10-30T02:02:48.654Z,16.00
2022-10-30T02:05:28.243Z,15.99
2022-10-30T02:07:55.942Z,15.96
2022-10-30T02:10:25.281Z,16.05
2022-10-30T02:12:53.160Z,16.06
2022-10-30T02:15:23.471Z,16.06
2022-10-30T02:17:50.725Z,15.99
2022-10-30T02:20:20.543Z,16.04
2022-10-30T02:22:51.787Z,15.95
2022-10-30T02:25:21.839Z,15.99
2022-10-30T02:27:49.920Z,15.98
2022-10-30T02:30:17.406Z,15.93
2022-10-30T02:32:47.026Z,15.94
2022-10-30T02:35:14.663Z,15.99
2022-10-30T02:37:41.873Z,15.94
2022-10-30T02:40:10.806Z,15.94
2022-10-30T02:42:39.217Z,15.87
2022-10-30T02:45:08.268Z,16.03
2022-10-30T02:47:35.609Z,16.07
2022-10-30T02:50:03.100Z,16.08
2022-10-30T02:52:31.269Z,16.06
2022-10-30T02:54:58.836Z,16.02
2022-10-30T02:57:26.207Z,16.07
2022-10-30T02:59:53.495Z,16.06
2022-10-30T03:02:22.422Z,16.06
2022-10-30T03:04:50.500Z,16.04
2022-10-30T03:07:17.957Z,15.95
2022-10-30T03:09:45.541Z,15.95
2022-10-30T03:12:13.020Z,15.99
2022-10-30T03:14:40.503Z,15.96
2022-10-30T03:17:07.716Z,15.96
2022-10-30T03:19:37.148Z,15.97
2022-10-30T03:22:04.736Z,15.88
2022-10-30T03:24:32.377Z,15.88
2022-10-30T03:26:59.537Z,15.88
2022-10-30T03:29:26.734Z,15.88
2022-10-30T03:31:54.186Z,15.91
2022-10-30T03:34:22.742Z,16.02
2022-10-30T03:36:50.092Z,16.04
2022-10-30T03:39:17.265Z,15.95
2022-10-30T03:41:46.473Z,16.04
2022-10-30T03:44:14.288Z,16.05
2022-10-30T03:46:41.816Z,16.02
2022-10-30T03:49:23.385Z,15.94
2022-10-30T03:51:50.569Z,15.90
2022-10-30T03:54:18.644Z,15.97
2022-10-30T03:56:46.398Z,16.01
2022-10-30T03:59:33.890Z,15.95
2022-10-30T04:02:39.490Z,16.17
2022-10-30T04:05:09.241Z,15.93
2022-10-30T04:07:36.703Z,15.89
2022-10-30T04:10:04.570Z,15.89
2022-10-30T04:12:34.548Z,15.92
2022-10-30T04:15:04.162Z,15.90
2022-10-30T04:17:31.548Z,15.92
2022-10-30T04:20:03.904Z,15.97
2022-10-30T04:22:33.000Z,15.89
2022-10-30T04:25:01.171Z,15.92
2022-10-30T04:27:45.643Z,16.00
2022-10-30T04:30:14.089Z,15.93
2022-10-30T04:32:54.021Z,16.07
2022-10-30T04:35:24.868Z,15.93
2022-10-30T04:38:00.257Z,15.98
2022-10-30T04:40:30.549Z,16.02
2022-10-30T04:43:05.825Z,16.06
2022-10-30T04:45:34.773Z,15.97
2022-10-30T04:48:10.932Z,15.98
2022-10-30T04:50:39.256Z,15.90
2022-10-30T04:53:18.777Z,15.93
2022-10-30T04:55:55.155Z,15.95
2022-10-30T04:58:24.506Z,15.81
2022-10-30T05:01:05.862Z,15.96
2022-10-30T05:03:35.384Z,15.98
2022-10-30T05:06:13.495Z,15.97
2022-10-30T05:08:41.108Z,16.01
2022-10-30T05:11:20.817Z,15.92
2022-10-30T05:13:48.551Z,15.88
2022-10-30T05:16:17.810Z,15.94
2022-10-30T05:18:45.594Z,15.96
2022-10-30T05:21:14.811Z,16.05
2022-10-30T05:23:43.244Z,16.02
2022-10-30T05:26:11.525Z,16.03
2022-10-30T05:28:41.304Z,16.10
2022-10-30T05:31:09.591Z,16.09
2022-10-30T05:34:07.209Z,16.14
2022-10-30T05:36:38.294Z,16.17
2022-10-30T05:39:07.576Z,16.12
2022-10-30T05:41:38.122Z,16.10
2022-10-30T05:44:06.440Z,16.03
2022-10-30T05:46:35.294Z,16.02
2022-10-30T05:49:23.148Z,15.98
2022-10-30T05:51:50.502Z,16.03
2022-10-30T05:54:18.382Z,16.02
2022-10-30T05:57:18.237Z,16.10
2022-10-30T05:59:46.165Z,15.96
2022-10-30T06:02:14.607Z,16.15
2022-10-30T06:04:43.289Z,16.08
2022-10-30T06:07:13.777Z,16.13
2022-10-30T06:09:40.951Z,16.18
2022-10-30T06:12:28.423Z,16.15
2022-10-30T06:15:05.555Z,16.07
2022-10-30T06:17:33.577Z,16.16
2022-10-30T06:20:13.518Z,16.12
2022-10-30T06:23:07.911Z,16.17
2022-10-30T06:25:49.370Z,16.07
2022-10-30T06:28:27.467Z,16.11
2022-10-30T06:30:55.491Z,16.08
2022-10-30T06:33:26.553Z,16.09
2022-10-30T06:35:54.820Z,16.04
2022-10-30T06:38:23.938Z,16.04
2022-10-30T06:40:53.039Z,16.06
2022-10-30T06:43:59.888Z,16.02
2022-10-30T06:46:32.445Z,16.07
2022-10-30T06:49:01.859Z,16.12
2022-10-30T06:51:31.298Z,16.05
2022-10-30T06:54:00.300Z,16.07
2022-10-30T06:56:40.312Z,16.03
2022-10-30T06:59:34.734Z,16.16
2022-10-30T07:02:22.038Z,16.03
2022-10-30T07:04:55.126Z,16.19
2022-10-30T07:07:22.312Z,16.10
2022-10-30T07:09:50.270Z,16.16
2022-10-30T07:12:22.503Z,16.16
2022-10-30T07:15:00.723Z,16.17
2022-10-30T07:18:01.686Z,16.19
2022-10-30T07:20:32.823Z,16.21
2022-10-30T07:23:01.124Z,16.19
2022-10-30T07:25:29.301Z,16.16
2022-10-30T07:28:05.298Z,16.21
2022-10-30T07:30:52.808Z,16.00
2022-10-30T07:33:37.740Z,16.14
2022-10-30T07:36:26.027Z,15.99
2022-10-30T07:39:04.380Z,16.11
2022-10-30T07:41:53.281Z,16.10
2022-10-30T07:44:40.005Z,16.13
2022-10-30T07:47:32.018Z,16.16
2022-10-30T07:50:12.060Z,16.15
2022-10-30T07:52:39.845Z,16.17
2022-10-30T07:55:09.153Z,16.15
2022-10-30T07:57:43.367Z,16.16
2022-10-30T08:00:26.324Z,16.16
2022-10-30T08:03:06.492Z,16.10
2022-10-30T08:05:55.513Z,16.25
2022-10-30T08:08:28.672Z,16.42
2022-10-30T08:11:07.811Z,16.31
2022-10-30T08:13:34.983Z,16.22
2022-10-30T08:16:02.417Z,16.16
2022-10-30T08:18:29.907Z,16.29
2022-10-30T08:20:57.091Z,16.27
2022-10-30T08:23:25.195Z,16.20
2022-10-30T08:25:53.382Z,16.30
2022-10-30T08:28:28.276Z,16.31
2022-10-30T08:31:00.383Z,16.19
2022-10-30T08:33:47.471Z,16.15
2022-10-30T08:36:28.096Z,16.23
2022-10-30T08:38:55.583Z,16.09
2022-10-30T08:41:40.374Z,16.42
2022-10-30T08:44:07.795Z,16.27
2022-10-30T08:47:02.124Z,16.21
2022-10-30T08:49:30.770Z,16.25
2022-10-30T08:52:00.144Z,16.23
2022-10-30T08:54:28.338Z,16.22
2022-10-30T08:56:57.040Z,16.09
2022-10-30T08:59:27.591Z,16.11
2022-10-30T09:01:58.782Z,16.13
2022-10-30T09:04:58.773Z,16.13
2022-10-30T09:08:04.648Z,16.24
2022-10-30T09:10:56.265Z,16.17
2022-10-30T09:13:25.749Z,16.11
2022-10-30T09:15:54.486Z,16.11
2022-10-30T09:18:22.403Z,15.90
2022-10-30T09:20:51.062Z,16.14
2022-10-30T09:23:19.842Z,16.12
2022-10-30T09:25:51.664Z,16.02
2022-10-30T09:28:42.629Z,16.06
2022-10-30T09:31:33.514Z,16.11
2022-10-30T09:34:04.727Z,15.95
2022-10-30T09:36:55.036Z,15.92
2022-10-30T09:39:23.393Z,15.93
2022-10-30T09:42:12.315Z,15.95
2022-10-30T09:45:08.104Z,15.93
2022-10-30T09:48:05.589Z,15.95
2022-10-30T09:50:57.934Z,15.98
2022-10-30T09:53:49.827Z,16.01
2022-10-30T09:56:34.870Z,16.04
2022-10-30T09:59:08.769Z,16.03
2022-10-30T10:01:53.498Z,16.06
2022-10-30T10:04:35.892Z,16.04
2022-10-30T10:07:56.684Z,15.92
2022-10-30T10:11:05.947Z,15.83
2022-10-30T10:13:45.368Z,15.89
2022-10-30T10:16:20.411Z,15.88
2022-10-30T10:19:12.573Z,15.91
2022-10-30T10:21:58.947Z,16.05
2022-10-30T10:24:46.501Z,16.03
2022-10-30T10:27:34.415Z,16.14
2022-10-30T10:30:10.824Z,16.06
2022-10-30T10:33:17.882Z,16.08
2022-10-30T10:36:20.692Z,16.20
2022-10-30T10:38:53.987Z,16.19
2022-10-30T10:41:40.267Z,16.21
2022-10-30T10:44:26.277Z,16.20
2022-10-30T10:47:28.403Z,16.16
2022-10-30T10:50:09.050Z,16.16
2022-10-30T10:52:59.296Z,16.17
2022-10-30T10:55:37.638Z,16.05
2022-10-30T10:58:22.649Z,16.05
2022-10-30T11:00:50.852Z,16.01
2022-10-30T11:03:26.288Z,15.98
2022-10-30T11:06:23.757Z,15.93
2022-10-30T11:08:54.358Z,15.77
2022-10-30T11:11:22.448Z,15.75
2022-10-30T11:13:50.474Z,15.68
2022-10-30T11:16:36.326Z,15.79
2022-10-30T11:19:09.654Z,15.78
2022-10-30T11:21:42.593Z,15.81
2022-10-30T11:24:26.259Z,15.85
2022-10-30T11:26:55.408Z,15.73
2022-10-30T11:29:32.402Z,15.84
2022-10-30T11:32:04.955Z,15.77
2022-10-30T11:34:39.751Z,15.75
2022-10-30T11:37:27.986Z,15.88
2022-10-30T11:40:12.285Z,15.84
2022-10-30T11:42:56.199Z,15.78
2022-10-30T11:45:34.040Z,15.79
2022-10-30T11:48:23.198Z,15.67
2022-10-30T11:50:54.413Z,15.58
2022-10-30T11:53:37.823Z,15.67
2022-10-30T11:56:15.737Z,15.70
2022-10-30T11:58:55.849Z,15.83
2022-10-30T12:01:25.680Z,15.81
2022-10-30T12:03:54.855Z,15.79
2022-10-30T12:06:29.611Z,15.74
2022-10-30T12:09:04.380Z,15.96
2022-10-30T12:11:35.103Z,15.82
2022-10-30T12:14:03.577Z,15.90
2022-10-30T12:16:31.506Z,15.85
2022-10-30T12:19:15.455Z,15.76
2022-10-30T12:21:50.270Z,15.79
2022-10-30T12:24:34.491Z,15.65
2022-10-30T12:27:04.198Z,15.68
2022-10-30T12:30:16.644Z,15.75
2022-10-30T12:32:57.038Z,15.75
2022-10-30T12:35:43.682Z,15.70
2022-10-30T12:38:19.561Z,15.71
2022-10-30T12:41:00.449Z,15.58
2022-10-30T12:43:28.225Z,15.51
2022-10-30T12:46:15.972Z,15.59
2022-10-30T12:48:53.895Z,15.57
2022-10-30T12:51:48.633Z,15.57
2022-10-30T12:54:54.780Z,15.61
2022-10-30T12:57:27.279Z,15.52
2022-10-30T12:59:56.103Z,15.48
2022-10-30T13:02:43.333Z,15.57
2022-10-30T13:05:29.808Z,15.55
2022-10-30T13:08:17.589Z,15.51
2022-10-30T13:10:55.129Z,15.52
2022-10-30T13:13:57.215Z,15.51
2022-10-30T13:16:32.549Z,15.54
2022-10-30T13:19:04.032Z,15.31
2022-10-30T13:21:50.227Z,15.54
2022-10-30T13:25:03.867Z,15.61
2022-10-30T13:27:56.135Z,15.60
2022-10-30T13:30:29.909Z,15.46
2022-10-30T13:33:06.714Z,15.49
2022-10-30T13:35:58.074Z,15.39
2022-10-30T13:38:46.257Z,15.52
2022-10-30T13:41:34.842Z,15.42
2022-10-30T13:44:25.843Z,15.28
2022-10-30T13:47:03.623Z,15.37
2022-10-30T13:49:33.095Z,15.42
2022-10-30T13:52:14.738Z,15.42
2022-10-30T13:54:48.646Z,15.43
2022-10-30T13:57:40.865Z,15.51
2022-10-30T14:00:20.888Z,15.51
2022-10-30T14:02:55.298Z,15.52
2022-10-30T14:06:00.132Z,15.54
2022-10-30T14:09:19.238Z,15.57
2022-10-30T14:11:46.659Z,15.48
2022-10-30T14:14:14.022Z,15.51
2022-10-30T14:17:04.412Z,15.54
2022-10-30T14:19:32.359Z,15.54
2022-10-30T14:22:00.355Z,15.47
2022-10-30T14:24:33.141Z,15.40
2022-10-30T14:27:07.945Z,15.39
2022-10-30T14:29:35.330Z,15.48
2022-10-30T14:32:04.049Z,15.32
2022-10-30T14:34:53.584Z,15.44
2022-10-30T14:37:29.280Z,15.35
2022-10-30T14:39:59.957Z,15.33
2022-10-30T14:42:40.146Z,15.55
2022-10-30T14:45:41.559Z,15.58
2022-10-30T14:48:19.125Z,15.49
2022-10-30T14:51:35.173Z,15.52
2022-10-30T14:54:18.580Z,15.54
2022-10-30T14:56:51.380Z,15.39
2022-10-30T14:59:18.899Z,15.58
2022-10-30T15:01:56.861Z,15.66
2022-10-30T15:04:45.537Z,15.65
2022-10-30T15:07:25.076Z,15.67
2022-10-30T15:10:07.341Z,15.66
2022-10-30T15:12:59.736Z,15.67
2022-10-30T15:15:30.165Z,15.64
2022-10-30T15:18:02.449Z,15.60
2022-10-30T15:20:33.737Z,15.69
2022-10-30T15:23:04.860Z,15.57
2022-10-30T15:25:56.982Z,15.71
2022-10-30T15:28:35.549Z,15.56
2022-10-30T15:31:27.822Z,15.65
2022-10-30T15:34:00.269Z,15.61
2022-10-30T15:36:31.555Z,15.63
2022-10-30T15:39:13.371Z,15.64
2022-10-30T15:41:46.530Z,15.50
2022-10-30T15:46:48.745Z,15.65
2022-10-30T15:49:21.454Z,15.67
2022-10-30T15:51:48.795Z,15.73
2022-10-30T15:54:24.110Z,15.56
2022-10-30T15:59:57.083Z,15.65
2022-10-30T16:02:28.226Z,15.70
2022-10-30T16:04:55.959Z,15.58
2022-10-30T16:07:29.252Z,15.73
2022-10-30T16:10:01.684Z,15.68
2022-10-30T16:12:34.759Z,15.64
2022-10-30T16:15:09.090Z,15.70
2022-10-30T16:17:36.483Z,15.74
2022-10-30T16:20:10.158Z,15.70
2022-10-30T16:22:39.810Z,15.55
2022-10-30T16:25:09.622Z,15.58
2022-10-30T16:27:44.555Z,15.63
2022-10-30T16:30:16.516Z,15.57
2022-10-30T16:32:52.759Z,15.70
2022-10-30T16:35:23.024Z,15.62
2022-10-30T16:37:51.076Z,15.71
2022-10-30T16:40:23.894Z,15.70
2022-10-30T16:42:56.499Z,15.68
2022-10-30T16:45:23.961Z,15.65
2022-10-30T16:48:00.134Z,15.62
2022-10-30T16:50:35.548Z,15.69
2022-10-30T16:53:10.471Z,15.69
2022-10-30T16:55:39.797Z,15.71
2022-10-30T16:58:07.899Z,15.67
2022-10-30T17:00:36.625Z,15.71
2022-10-30T17:03:11.567Z,15.72
2022-10-30T17:05:46.834Z,15.78
2022-10-30T17:08:17.452Z,15.73
2022-10-30T17:11:00.440Z,15.81
2022-10-30T17:13:32.181Z,15.77
2022-10-30T17:16:12.865Z,15.70
2022-10-30T17:18:40.220Z,15.70
2022-10-30T17:21:14.257Z,15.75
2022-10-30T17:23:46.980Z,15.84
2022-10-30T17:26:16.255Z,15.71
2022-10-30T17:28:45.381Z,15.69
2022-10-30T17:31:20.502Z,15.81
2022-10-30T17:34:06.077Z,15.74
2022-10-30T17:36:34.753Z,15.83
2022-10-30T17:39:02.687Z,15.80
2022-10-30T17:41:30.165Z,15.73
2022-10-30T17:43:57.581Z,15.67
2022-10-30T17:46:27.560Z,15.71
2022-10-30T17:48:55.041Z,15.65
2022-10-30T17:51:22.903Z,15.62
2022-10-30T17:53:50.499Z,15.59
2022-10-30T17:56:25.821Z,15.63
2022-10-30T17:58:54.616Z,15.60
2022-10-30T18:01:28.495Z,15.54
2022-10-30T18:03:56.515Z,15.55
2022-10-30T18:06:32.108Z,15.46
2022-10-30T18:08:59.324Z,15.46
2022-10-30T18:11:27.392Z,15.59
2022-10-30T18:13:57.961Z,15.66
2022-10-30T18:16:25.690Z,15.69
2022-10-30T18:18:55.414Z,15.66
2022-10-30T18:21:31.994Z,15.58
2022-10-30T18:24:00.266Z,15.41
2022-10-30T18:26:28.288Z,15.21
2022-10-30T18:28:55.769Z,15.17
2022-10-30T18:31:25.029Z,15.31
2022-10-30T18:33:52.216Z,15.18
2022-10-30T18:36:23.743Z,15.16
2022-10-30T18:38:56.289Z,15.01
2022-10-30T18:41:32.793Z,14.84
2022-10-30T18:44:00.451Z,14.99
2022-10-30T18:46:30.749Z,14.95
2022-10-30T18:48:59.031Z,14.94
2022-10-30T18:51:28.800Z,15.06
2022-10-30T18:53:57.909Z,15.25
2022-10-30T18:56:30.046Z,15.29
2022-10-30T18:59:02.356Z,15.41
2022-10-30T19:01:34.775Z,15.44
2022-10-30T19:04:04.506Z,15.38
2022-10-30T19:06:34.876Z,15.59
2022-10-30T19:09:02.782Z,15.56
2022-10-30T19:11:31.789Z,15.40
2022-10-30T19:14:00.368Z,15.42
2022-10-30T19:16:27.868Z,15.35
2022-10-30T19:18:55.206Z,15.20
2022-10-30T19:21:26.406Z,15.05
2022-10-30T19:23:56.997Z,15.14
2022-10-30T19:26:24.690Z,15.18
2022-10-30T19:28:52.039Z,15.32
2022-10-30T19:31:19.834Z,15.31
2022-10-30T19:33:51.491Z,15.48
2022-10-30T19:36:34.878Z,15.47
2022-10-30T19:39:11.888Z,15.46
2022-10-30T19:41:41.572Z,15.43
2022-10-30T19:44:10.000Z,15.40
2022-10-30T19:46:38.003Z,15.25
2022-10-30T19:49:20.349Z,15.18
2022-10-30T19:51:48.686Z,15.08
2022-10-30T19:54:15.970Z,15.15
2022-10-30T19:56:46.004Z,15.17
2022-10-30T19:59:15.032Z,15.26
2022-10-30T20:01:43.928Z,15.26
2022-10-30T20:04:11.566Z,15.26
2022-10-30T20:06:39.124Z,15.09
2022-10-30T20:09:06.781Z,15.19
2022-10-30T20:11:34.378Z,14.94
2022-10-30T20:14:01.679Z,14.92
2022-10-30T20:16:28.883Z,14.67
2022-10-30T20:18:56.329Z,14.46
2022-10-30T20:21:23.526Z,14.42
2022-10-30T20:23:51.197Z,14.34
2022-10-30T20:26:28.540Z,14.60
2022-10-30T20:28:56.017Z,14.65
2022-10-30T20:31:24.449Z,14.86
2022-10-30T20:33:53.594Z,14.87
2022-10-30T20:36:20.888Z,14.93
2022-10-30T20:38:49.030Z,14.97
2022-10-30T20:41:25.666Z,15.07
2022-10-30T20:43:52.982Z,15.13
2022-10-30T20:46:20.969Z,14.90
2022-10-30T20:48:48.496Z,14.94
2022-10-30T20:51:16.708Z,15.03
2022-10-30T20:53:43.983Z,14.98
2022-10-30T20:56:12.111Z,14.88
2022-10-30T20:58:41.586Z,14.86
2022-10-30T21:01:09.388Z,14.90
2022-10-30T21:03:36.692Z,14.75
2022-10-30T21:06:04.394Z,14.86
2022-10-30T21:08:32.581Z,14.95
2022-10-30T21:11:01.802Z,14.79
2022-10-30T21:13:29.934Z,14.65
2022-10-30T21:16:02.886Z,14.97
2022-10-30T21:18:31.052Z,15.15
2022-10-30T21:21:07.105Z,15.16
2022-10-30T21:23:34.752Z,14.95
2022-10-30T21:26:07.153Z,14.95
2022-10-30T21:28:34.695Z,14.96
2022-10-30T21:31:04.908Z,14.87
2022-10-30T21:33:33.784Z,14.76
2022-10-30T21:36:12.997Z,14.75
2022-10-30T21:38:42.684Z,14.66
2022-10-30T21:41:11.603Z,14.57
2022-10-30T21:43:39.184Z,14.57
2022-10-30T21:46:12.663Z,14.51
2022-10-30T21:48:40.052Z,14.35
2022-10-30T21:51:08.796Z,14.27
2022-10-30T21:53:36.995Z,14.24
2022-10-30T21:56:06.864Z,14.15
2022-10-30T21:58:34.639Z,14.36
2022-10-30T22:01:02.886Z,14.55
2022-10-30T22:03:30.629Z,14.60
2022-10-30T22:05:58.131Z,14.68
2022-10-30T22:08:25.456Z,14.90
2022-10-30T22:10:52.678Z,14.96
2022-10-30T22:13:19.934Z,14.84
2022-10-30T22:15:54.984Z,14.84
2022-10-30T22:18:22.457Z,14.59
2022-10-30T22:20:50.208Z,14.51
2022-10-30T22:23:17.911Z,14.29
2022-10-30T22:25:57.252Z,14.37
2022-10-30T22:28:24.476Z,14.40
2022-10-30T22:30:52.331Z,14.45
2022-10-30T22:33:20.607Z,14.59
2022-10-30T22:35:48.948Z,14.50
2022-10-30T22:38:16.929Z,14.43
2022-10-30T22:40:46.832Z,14.44
2022-10-30T22:43:14.191Z,14.47
2022-10-30T22:45:41.461Z,14.43
2022-10-30T22:48:08.823Z,14.23
2022-10-30T22:50:37.506Z,14.26
2022-10-30T22:53:05.526Z,14.37
2022-10-30T22:55:32.773Z,14.45
2022-10-30T22:58:00.435Z,14.45
2022-10-30T23:00:28.014Z,14.38
2022-10-30T23:02:56.007Z,14.40
2022-10-30T23:05:23.576Z,14.21
2022-10-30T23:07:52.444Z,14.40
2022-10-30T23:10:20.975Z,14.39
2022-10-30T23:12:48.190Z,14.54
2022-10-30T23:15:15.604Z,14.41
2022-10-30T23:17:43.091Z,14.43
2022-10-30T23:20:11.527Z,14.45
2022-10-30T23:22:40.104Z,14.31
2022-10-30T23:25:07.602Z,14.08
2022-10-30T23:27:35.444Z,13.99
2022-10-30T23:30:02.722Z,13.87
2022-10-30T23:32:31.200Z,13.95
2022-10-30T23:34:58.588Z,14.10
2022-10-30T23:37:25.727Z,14.36
2022-10-30T23:39:53.153Z,14.59
2022-10-30T23:42:20.707Z,14.31
2022-10-30T23:44:47.925Z,14.35
2022-10-30T23:47:16.256Z,14.38
2022-10-30T23:49:44.820Z,14.42
2022-10-30T23:52:12.210Z,14.29
2022-10-30T23:54:40.525Z,14.30
2022-10-30T23:57:08.063Z,14.15
2022-10-30T23:59:35.892Z,14.14
